Time;durP1;ratioP1;P1;durP2;ratioP2;P2;SDS_P1;SDS_P2;PMS_P1;PMS_P2;Temp;Humidity;BMP_temperature;BMP_pressure;BME280_temperature;BME280_humidity;BME280_pressure;Samples;Min_cycle;Max_cycle;Signal;HPM_P1;HPM_P2
2023/07/17 00:00:52;;;;;;;13.23;9.13;;;;;;;25.07;100.00;100249.63;5546652;32;34380;-62
2023/07/17 00:03:55;;;;;;;10.77;8.95;;;;;;;24.99;100.00;100247.41;5546308;32;33917;-61
2023/07/17 00:06:58;;;;;;;12.02;9.38;;;;;;;24.92;100.00;100240.59;5532621;32;32219;-62
2023/07/17 00:10:03;;;;;;;17.55;9.73;;;;;;;24.84;100.00;100239.16;5546212;32;32386;-62
2023/07/17 00:13:06;;;;;;;15.68;9.38;;;;;;;24.78;100.00;100234.81;5546189;32;33584;-62
2023/07/17 00:16:10;;;;;;;11.88;9.32;;;;;;;24.75;100.00;100238.06;5547218;32;34513;-62
2023/07/17 00:19:13;;;;;;;16.50;10.20;;;;;;;24.78;100.00;100239.44;5535505;32;32615;-62
2023/07/17 00:22:16;;;;;;;12.55;10.23;;;;;;;24.69;100.00;100255.38;5549023;32;34373;-62
2023/07/17 00:25:19;;;;;;;13.32;10.05;;;;;;;24.71;100.00;100252.41;5548821;32;33947;-62
2023/07/17 00:28:22;;;;;;;16.90;10.80;;;;;;;24.71;100.00;100250.50;5548656;32;33862;-62
2023/07/17 00:31:25;;;;;;;14.35;10.95;;;;;;;24.75;100.00;100257.03;5548911;32;33824;-62
2023/07/17 00:34:28;;;;;;;15.95;10.98;;;;;;;24.74;100.00;100258.13;5549099;32;34577;-62
2023/07/17 00:37:31;;;;;;;16.45;10.27;;;;;;;24.73;100.00;100258.41;5548623;32;32825;-63
2023/07/17 00:40:39;;;;;;;12.45;9.93;;;;;;;24.66;100.00;100254.03;5535138;32;34210;-62
2023/07/17 00:43:41;;;;;;;11.82;10.45;;;;;;;24.57;100.00;100258.31;5548650;32;32908;-63
2023/07/17 00:46:48;;;;;;;13.82;10.70;;;;;;;24.57;100.00;100263.75;5548700;32;34616;-62
2023/07/17 00:49:51;;;;;;;18.65;10.40;;;;;;;24.52;100.00;100262.88;5548776;32;33795;-63
2023/07/17 00:52:55;;;;;;;13.23;10.90;;;;;;;24.42;100.00;100263.63;5534951;32;33770;-62
2023/07/17 00:55:58;;;;;;;13.13;10.73;;;;;;;24.35;100.00;100271.16;5548529;32;34957;-62
2023/07/17 00:59:03;;;;;;;14.50;11.00;;;;;;;24.27;100.00;100271.66;5548573;32;34380;-63
2023/07/17 01:02:08;;;;;;;14.87;10.75;;;;;;;24.24;100.00;100269.47;5534904;32;33213;-62
2023/07/17 01:05:11;;;;;;;12.27;10.98;;;;;;;24.17;100.00;100268.88;5548554;32;33909;-62
2023/07/17 01:08:15;;;;;;;15.25;10.93;;;;;;;24.19;100.00;100264.03;5548435;32;33707;-62
2023/07/17 01:11:18;;;;;;;12.45;10.60;;;;;;;24.24;100.00;100266.78;5534794;32;33745;-62
2023/07/17 01:14:21;;;;;;;13.70;10.75;;;;;;;24.31;100.00;100266.53;5534790;32;34565;-62
2023/07/17 01:17:24;;;;;;;13.80;11.27;;;;;;;24.28;100.00;100261.66;5534824;32;33180;-62
2023/07/17 01:20:27;;;;;;;13.05;10.73;;;;;;;24.16;100.00;100264.50;5534699;32;33762;-62
2023/07/17 01:23:32;;;;;;;13.07;11.15;;;;;;;24.03;100.00;100254.09;5534781;32;33767;-62
2023/07/17 01:26:35;;;;;;;15.77;10.98;;;;;;;24.06;100.00;100248.97;5548250;32;33752;-62
2023/07/17 01:29:38;;;;;;;15.73;10.73;;;;;;;24.03;100.00;100243.25;5547574;32;34215;-62
2023/07/17 01:32:41;;;;;;;13.68;11.12;;;;;;;23.93;100.00;100248.59;5534650;32;33901;-62
2023/07/17 01:35:44;;;;;;;12.02;10.60;;;;;;;23.92;100.00;100244.25;5534345;32;33772;-62
2023/07/17 01:38:47;;;;;;;12.77;10.77;;;;;;;23.80;100.00;100247.16;5533970;32;34283;-62
2023/07/17 01:41:50;;;;;;;14.43;11.07;;;;;;;23.76;100.00;100236.00;5548055;32;32417;-62
2023/07/17 01:44:53;;;;;;;12.40;11.18;;;;;;;23.75;100.00;100247.09;5548054;32;33797;-63
2023/07/17 01:47:57;;;;;;;12.68;11.40;;;;;;;23.69;100.00;100240.00;5548293;32;34327;-62
2023/07/17 01:51:00;;;;;;;12.48;11.07;;;;;;;23.66;100.00;100238.62;5534624;32;33740;-63
2023/07/17 01:54:04;;;;;;;11.95;10.75;;;;;;;23.69;100.00;100242.69;5548064;32;34427;-62
2023/07/17 01:57:07;;;;;;;15.13;12.40;;;;;;;23.80;100.00;100244.44;5548378;32;34528;-62
2023/07/17 02:00:12;;;;;;;21.37;11.32;;;;;;;23.88;100.00;100243.94;5547541;32;33917;-63
2023/07/17 02:03:15;;;;;;;13.95;11.57;;;;;;;23.87;100.00;100250.44;5548055;32;33919;-62
2023/07/17 02:06:18;;;;;;;13.65;11.82;;;;;;;23.91;100.00;100253.47;5548081;32;33766;-63
2023/07/17 02:09:21;;;;;;;12.88;11.18;;;;;;;23.79;100.00;100250.91;5548009;32;32665;-63
2023/07/17 02:12:25;;;;;;;13.55;11.70;;;;;;;23.78;100.00;100262.81;5547956;32;33853;-62
2023/07/17 02:15:28;;;;;;;16.35;11.23;;;;;;;23.89;100.00;100271.88;5548340;32;33654;-62
2023/07/17 02:18:32;;;;;;;12.90;11.35;;;;;;;23.75;100.00;100266.06;5547869;32;33573;-62
2023/07/17 02:21:35;;;;;;;14.60;11.68;;;;;;;23.70;100.00;100264.13;5547678;32;33645;-62
2023/07/17 02:24:38;;;;;;;15.40;11.68;;;;;;;23.69;100.00;100273.31;5547998;32;33658;-62
2023/07/17 02:27:41;;;;;;;13.85;11.50;;;;;;;23.68;100.00;100266.25;5548101;32;33918;-63
2023/07/17 02:30:44;;;;;;;14.38;11.30;;;;;;;23.62;100.00;100277.31;5547984;32;35150;-63
2023/07/17 02:33:47;;;;;;;16.52;12.10;;;;;;;23.57;100.00;100291.63;5547764;32;34597;-63
2023/07/17 02:36:52;;;;;;;12.75;11.12;;;;;;;23.56;100.00;100292.69;5547804;32;33891;-62
2023/07/17 02:39:55;;;;;;;12.73;11.20;;;;;;;23.57;100.00;100296.22;5533853;32;33585;-62
2023/07/17 02:42:58;;;;;;;12.85;11.48;;;;;;;23.59;100.00;100303.00;5534019;32;33759;-62
2023/07/17 02:46:01;;;;;;;14.07;11.65;;;;;;;23.52;100.00;100321.34;5547449;32;35386;-63
2023/07/17 02:49:06;;;;;;;18.00;12.63;;;;;;;23.45;100.00;100319.91;5547634;32;34070;-63
2023/07/17 02:52:10;;;;;;;14.60;11.98;;;;;;;23.37;100.00;100321.16;5547483;32;34184;-62
2023/07/17 02:55:13;;;;;;;13.43;11.90;;;;;;;23.22;100.00;100332.59;5534001;32;33505;-62
2023/07/17 02:58:18;;;;;;;14.52;12.40;;;;;;;23.27;100.00;100334.56;5547432;32;34336;-62
2023/07/17 03:01:22;;;;;;;12.93;11.52;;;;;;;23.25;100.00;100328.56;5547703;32;33849;-62
2023/07/17 03:04:25;;;;;;;14.57;11.82;;;;;;;23.20;100.00;100328.50;5547422;32;32451;-63
2023/07/17 03:07:28;;;;;;;17.83;12.20;;;;;;;23.09;100.00;100330.25;5533791;32;33887;-62
2023/07/17 03:10:31;;;;;;;15.30;12.02;;;;;;;23.07;100.00;100323.47;5547423;32;34325;-62
2023/07/17 03:13:34;;;;;;;14.98;12.00;;;;;;;23.04;100.00;100329.41;5533619;32;34992;-62
2023/07/17 03:16:37;;;;;;;14.00;12.25;;;;;;;22.99;100.00;100321.22;5547112;32;33895;-63
2023/07/17 03:19:40;;;;;;;12.75;11.32;;;;;;;23.05;100.00;100328.31;5547043;32;33772;-63
2023/07/17 03:22:43;;;;;;;14.25;11.57;;;;;;;23.07;100.00;100318.06;5547123;32;33488;-62
2023/07/17 03:25:47;;;;;;;17.83;11.45;;;;;;;23.03;100.00;100322.34;5547037;32;33517;-63
2023/07/17 03:28:50;;;;;;;15.00;11.55;;;;;;;23.03;100.00;100323.16;5533172;32;34455;-63
2023/07/17 03:31:53;;;;;;;16.08;11.52;;;;;;;22.95;100.00;100321.69;5533132;32;33969;-63
2023/07/17 03:34:56;;;;;;;15.70;11.85;;;;;;;22.94;100.00;100316.56;5546768;32;34445;-63
2023/07/17 03:38:00;;;;;;;15.63;11.63;;;;;;;22.90;100.00;100326.22;5547126;32;34463;-62
2023/07/17 03:41:03;;;;;;;13.73;11.00;;;;;;;22.93;100.00;100325.72;5533177;32;34512;-62
2023/07/17 03:44:09;;;;;;;14.50;11.65;;;;;;;22.93;100.00;100323.03;5531291;32;34488;-63
2023/07/17 03:47:12;;;;;;;13.60;10.75;;;;;;;23.00;100.00;100318.22;5544783;32;34274;-62
2023/07/17 03:50:16;;;;;;;18.20;11.32;;;;;;;23.14;100.00;100316.78;5546111;32;35489;-63
2023/07/17 03:53:19;;;;;;;12.85;11.35;;;;;;;23.21;100.00;100309.31;5543509;32;34428;-63
2023/07/17 03:56:23;;;;;;;16.37;11.43;;;;;;;23.21;100.00;100311.19;5535230;32;34806;-63
2023/07/17 03:59:26;;;;;;;14.68;11.55;;;;;;;23.25;100.00;100312.31;5522606;32;34385;-63
2023/07/17 04:02:29;;;;;;;13.13;11.18;;;;;;;23.31;100.00;100324.87;5548738;32;34901;-63
2023/07/17 04:05:33;;;;;;;15.75;11.57;;;;;;;23.35;100.00;100320.56;5548820;32;33281;-63
2023/07/17 04:08:36;;;;;;;14.32;11.10;;;;;;;23.43;100.00;100330.16;5535591;32;33742;-64
2023/07/17 04:11:40;;;;;;;17.62;12.20;;;;;;;23.46;100.00;100327.78;5548926;32;33925;-64
2023/07/17 04:14:45;;;;;;;14.50;12.00;;;;;;;23.53;100.00;100322.19;5548940;32;33981;-63
2023/07/17 04:17:49;;;;;;;20.25;11.25;;;;;;;23.63;100.00;100327.69;5535202;32;33626;-63
2023/07/17 04:20:52;;;;;;;14.23;11.75;;;;;;;23.76;100.00;100324.59;5548823;32;33908;-63
2023/07/17 04:23:58;;;;;;;12.55;11.25;;;;;;;23.86;100.00;100327.41;5548811;32;33652;-63
2023/07/17 04:27:02;;;;;;;12.43;10.98;;;;;;;23.91;100.00;100323.91;5549036;32;33939;-63
2023/07/17 04:30:06;;;;;;;12.82;11.40;;;;;;;24.01;100.00;100330.22;5535095;32;34023;-63
2023/07/17 04:33:09;;;;;;;15.52;10.63;;;;;;;24.14;100.00;100329.81;5548463;32;34162;-63
2023/07/17 04:36:13;;;;;;;14.45;10.82;;;;;;;24.18;100.00;100330.16;5535113;32;34537;-63
2023/07/17 04:39:16;;;;;;;16.30;11.25;;;;;;;24.30;100.00;100341.66;5548513;32;32959;-63
2023/07/17 04:42:19;;;;;;;17.70;11.23;;;;;;;24.44;100.00;100336.59;5548565;32;34519;-63
2023/07/17 04:45:22;;;;;;;14.15;11.10;;;;;;;24.52;100.00;100331.50;5548566;32;33758;-62
2023/07/17 04:48:26;;;;;;;12.40;10.95;;;;;;;24.56;100.00;100342.66;5548777;32;33894;-63
2023/07/17 04:51:29;;;;;;;18.17;11.25;;;;;;;24.64;100.00;100342.97;5548927;32;34396;-63
2023/07/17 04:54:33;;;;;;;15.43;11.63;;;;;;;24.87;100.00;100349.97;5534864;32;34620;-63
2023/07/17 04:57:36;;;;;;;16.65;11.12;;;;;;;24.81;100.00;100344.72;5534672;32;33482;-63
2023/07/17 05:00:39;;;;;;;12.40;11.15;;;;;;;24.89;100.00;100347.78;5547822;32;32573;-63
2023/07/17 05:03:42;;;;;;;16.73;11.30;;;;;;;24.95;100.00;100346.75;5523812;32;33836;-63
2023/07/17 05:06:46;;;;;;;17.90;11.20;;;;;;;24.87;100.00;100352.66;5547720;32;33904;-63
2023/07/17 05:09:49;;;;;;;15.15;11.02;;;;;;;25.05;100.00;100346.78;5534636;32;33440;-63
2023/07/17 05:12:53;;;;;;;16.10;11.00;;;;;;;25.16;100.00;100342.25;5546813;32;34114;-63
2023/07/17 05:15:56;;;;;;;14.50;10.95;;;;;;;25.15;100.00;100343.31;5532403;32;34067;-63
2023/07/17 05:18:59;;;;;;;13.98;10.70;;;;;;;25.29;100.00;100339.03;5534744;32;35315;-62
2023/07/17 05:22:04;;;;;;;17.75;10.35;;;;;;;25.41;100.00;100339.63;5543880;32;34488;-63
2023/07/17 05:25:08;;;;;;;12.50;10.45;;;;;;;25.48;100.00;100331.22;5532605;32;34096;-63
2023/07/17 05:28:11;;;;;;;16.90;10.38;;;;;;;25.51;100.00;100334.22;5527283;32;34259;-63
2023/07/17 05:31:15;;;;;;;19.85;10.00;;;;;;;25.51;100.00;100328.78;5548020;32;33874;-62
2023/07/17 05:34:18;;;;;;;20.58;10.20;;;;;;;25.62;100.00;100340.53;5547523;32;34043;-61
2023/07/17 05:37:22;;;;;;;16.70;10.15;;;;;;;25.86;100.00;100349.00;5546369;32;33812;-61
2023/07/17 05:40:26;;;;;;;18.58;10.25;;;;;;;26.07;100.00;100341.69;5547505;32;34761;-61
2023/07/17 05:43:35;;;;;;;15.10;9.68;;;;;;;26.18;100.00;100335.19;5547770;32;33298;-61
2023/07/17 05:46:38;;;;;;;15.80;9.23;;;;;;;26.36;100.00;100338.22;5542350;32;33523;-61
2023/07/17 05:49:44;;;;;;;14.35;9.70;;;;;;;26.44;100.00;100342.28;5522538;32;33601;-62
2023/07/17 05:52:47;;;;;;;16.05;10.13;;;;;;;26.58;100.00;100335.19;5540184;32;34401;-63
2023/07/17 05:55:52;;;;;;;23.92;9.82;;;;;;;26.51;100.00;100340.09;5532096;32;33768;-63
2023/07/17 05:58:55;;;;;;;15.75;10.20;;;;;;;26.56;100.00;100348.25;5547606;32;33603;-62
2023/07/17 06:01:59;;;;;;;19.55;8.85;;;;;;;26.66;100.00;100342.81;5531295;32;33586;-62
2023/07/17 06:05:05;;;;;;;14.18;10.07;;;;;;;26.76;100.00;100342.78;5533829;32;34621;-62
2023/07/17 06:08:08;;;;;;;10.85;9.30;;;;;;;26.96;100.00;100344.69;5547365;32;34680;-63
2023/07/17 06:11:12;;;;;;;15.10;9.43;;;;;;;27.02;100.00;100346.28;5547374;32;34353;-63
2023/07/17 06:14:15;;;;;;;16.05;9.10;;;;;;;27.03;100.00;100350.62;5546326;32;33799;-63
2023/07/17 06:17:18;;;;;;;12.32;8.90;;;;;;;27.27;100.00;100355.44;5546996;32;34428;-62
2023/07/17 06:20:21;;;;;;;16.23;8.88;;;;;;;27.37;100.00;100356.22;5536287;32;34459;-63
2023/07/17 06:23:24;;;;;;;13.98;8.30;;;;;;;27.27;100.00;100347.28;5533932;32;34884;-63
2023/07/17 06:26:27;;;;;;;13.18;8.52;;;;;;;27.50;100.00;100341.22;5544025;32;33916;-63
2023/07/17 06:29:30;;;;;;;15.48;8.82;;;;;;;27.67;100.00;100344.41;5528701;32;33233;-63
2023/07/17 06:32:33;;;;;;;8.85;7.62;;;;;;;27.88;100.00;100351.38;5533419;32;34866;-63
2023/07/17 06:35:36;;;;;;;13.62;7.60;;;;;;;28.08;99.32;100351.22;5533560;32;34118;-62
2023/07/17 06:38:39;;;;;;;51.72;9.05;;;;;;;28.21;97.55;100347.06;5533784;32;34768;-62
2023/07/17 06:41:42;;;;;;;22.92;7.80;;;;;;;28.43;98.28;100352.06;5532253;32;33828;-62
2023/07/17 06:44:45;;;;;;;11.85;7.00;;;;;;;28.42;95.64;100348.50;5547235;32;34423;-62
2023/07/17 06:47:48;;;;;;;16.75;7.05;;;;;;;28.43;90.05;100341.13;5547250;32;34507;-63
2023/07/17 06:50:51;;;;;;;12.40;7.80;;;;;;;28.73;90.54;100340.88;5527451;32;33882;-62
2023/07/17 06:53:54;;;;;;;15.30;6.82;;;;;;;28.87;87.80;100335.56;5537857;32;33762;-63
2023/07/17 06:56:57;;;;;;;15.50;6.60;;;;;;;28.97;82.36;100337.34;5546717;32;32772;-63
2023/07/17 07:00:01;;;;;;;12.77;7.32;;;;;;;28.98;79.85;100339.81;5529518;32;33805;-63
2023/07/17 07:03:03;;;;;;;10.75;6.55;;;;;;;29.24;77.49;100341.13;5544898;32;34035;-62
2023/07/17 07:06:07;;;;;;;13.95;6.25;;;;;;;29.35;74.71;100339.91;5537108;32;33351;-62
2023/07/17 07:09:16;;;;;;;12.48;5.87;;;;;;;29.49;73.44;100329.06;5546220;32;33853;-63
2023/07/17 07:12:35;;;;;;;11.77;5.57;;;;;;;29.63;70.16;100335.44;5517765;32;34441;-63
2023/07/17 07:15:38;;;;;;;15.15;6.00;;;;;;;29.98;64.32;100334.12;5527299;32;33995;-62
2023/07/17 07:18:41;;;;;;;14.15;6.18;;;;;;;30.18;63.17;100341.22;5546576;32;33890;-63
2023/07/17 07:21:44;;;;;;;10.88;5.87;;;;;;;30.18;64.11;100350.25;5533192;32;34506;-63
2023/07/17 07:24:47;;;;;;;8.15;5.50;;;;;;;30.07;64.19;100337.00;5543865;32;34236;-63
2023/07/17 07:27:50;;;;;;;11.27;6.12;;;;;;;30.49;61.62;100336.91;5512411;32;33904;-63
2023/07/17 07:30:57;;;;;;;11.82;6.03;;;;;;;30.76;61.12;100341.59;5513366;32;34337;-62
2023/07/17 07:34:00;;;;;;;20.35;5.87;;;;;;;31.11;58.73;100331.09;5534268;32;34253;-63
2023/07/17 07:37:03;;;;;;;9.75;5.50;;;;;;;31.68;57.16;100337.84;5546301;32;32831;-63
2023/07/17 07:40:10;;;;;;;11.38;5.50;;;;;;;31.99;53.19;100327.78;5546336;32;33575;-63
2023/07/17 07:43:13;;;;;;;9.15;5.10;;;;;;;32.51;51.88;100330.91;5546371;32;33910;-63
2023/07/17 07:46:16;;;;;;;13.02;5.93;;;;;;;33.37;48.69;100331.28;5546271;32;34834;-64
2023/07/17 07:49:20;;;;;;;11.25;5.78;;;;;;;33.86;47.36;100330.88;5532664;32;34521;-64
2023/07/17 07:52:23;;;;;;;8.55;5.20;;;;;;;34.16;47.56;100339.28;5545728;32;33583;-63
2023/07/17 07:55:26;;;;;;;8.73;4.80;;;;;;;33.50;48.27;100333.09;5541464;32;33931;-63
2023/07/17 07:58:29;;;;;;;9.65;4.78;;;;;;;34.19;46.48;100335.91;5542899;32;34587;-63
2023/07/17 08:01:32;;;;;;;11.02;7.65;;;;;;;34.40;46.02;100339.59;5546249;32;33874;-63
2023/07/17 08:04:36;;;;;;;7.28;4.82;;;;;;;35.98;41.92;100338.16;5545743;32;34572;-63
2023/07/17 08:07:39;;;;;;;12.52;4.82;;;;;;;36.53;40.55;100341.38;5546056;32;33541;-64
2023/07/17 08:10:42;;;;;;;16.70;4.97;;;;;;;36.19;40.90;100343.69;5545266;32;34616;-65
2023/07/17 08:13:48;;;;;;;10.88;4.85;;;;;;;35.43;41.68;100339.22;5539956;32;35324;-63
2023/07/17 08:16:53;;;;;;;8.10;4.60;;;;;;;36.20;40.29;100340.59;5542008;32;33885;-64
2023/07/17 08:19:56;;;;;;;10.85;4.55;;;;;;;35.26;41.69;100336.56;5530782;32;33916;-64
2023/07/17 08:22:59;;;;;;;11.20;4.62;;;;;;;36.92;39.13;100331.69;5545139;32;33912;-64
2023/07/17 08:26:02;;;;;;;9.48;4.30;;;;;;;37.27;38.52;100325.69;5545586;32;33873;-64
2023/07/17 08:29:06;;;;;;;16.20;4.32;;;;;;;37.09;37.19;100324.31;5544103;32;33958;-64
2023/07/17 08:32:10;;;;;;;9.82;5.25;;;;;;;37.32;37.66;100336.53;5531873;32;34450;-64
2023/07/17 08:35:14;;;;;;;11.70;4.50;;;;;;;37.29;38.38;100329.72;5544715;32;33962;-64
2023/07/17 08:38:17;;;;;;;8.70;4.70;;;;;;;36.09;40.52;100336.59;5533542;32;34648;-63
2023/07/17 08:41:21;;;;;;;13.05;4.78;;;;;;;37.13;38.82;100339.91;5533629;32;33530;-64
2023/07/17 08:44:25;;;;;;;9.75;4.57;;;;;;;37.00;38.83;100336.28;5548246;32;33599;-63
2023/07/17 08:47:29;;;;;;;11.60;4.80;;;;;;;38.32;36.04;100341.09;5547166;32;33576;-64
2023/07/17 08:50:34;;;;;;;18.85;4.82;;;;;;;39.06;35.75;100347.81;5533253;32;34428;-64
2023/07/17 08:53:42;;;;;;;12.20;5.30;;;;;;;39.17;35.10;100342.53;5534379;32;33341;-64
2023/07/17 08:56:46;;;;;;;14.77;5.10;;;;;;;39.62;34.78;100341.97;5547363;32;33780;-64
2023/07/17 08:59:50;;;;;;;10.88;4.53;;;;;;;39.18;35.92;100333.03;5532459;32;33812;-63
2023/07/17 09:02:53;;;;;;;12.45;4.60;;;;;;;39.71;34.54;100342.56;5532567;32;33604;-64
2023/07/17 09:05:56;;;;;;;15.95;4.95;;;;;;;39.48;35.11;100336.94;5548220;32;34514;-63
2023/07/17 09:09:00;;;;;;;9.63;4.50;;;;;;;40.70;34.16;100341.81;5526156;32;34689;-63
2023/07/17 09:12:08;;;;;;;9.48;4.75;;;;;;;42.03;31.29;100327.47;5540193;32;35358;-64
2023/07/17 09:15:17;;;;;;;19.73;4.68;;;;;;;42.99;29.68;100336.84;5547770;32;34392;-64
2023/07/17 09:18:24;;;;;;;8.07;4.55;;;;;;;43.67;28.51;100341.69;5519875;32;34548;-64
2023/07/17 09:21:27;;;;;;;10.63;4.50;;;;;;;42.14;29.88;100333.19;5534072;32;33585;-64
2023/07/17 09:24:33;;;;;;;19.60;5.37;;;;;;;42.18;30.26;100329.25;5547674;32;34469;-64
2023/07/17 09:27:47;;;;;;;6.90;4.30;;;;;;;41.86;30.46;100325.31;5534545;32;34575;-66
2023/07/17 09:31:01;;;;;;;15.98;4.78;;;;;;;39.49;33.63;100319.09;5548125;32;34482;-64
2023/07/17 09:34:13;;;;;;;9.57;4.78;;;;;;;40.87;31.97;100313.47;5534163;32;34644;-63
2023/07/17 09:37:16;;;;;;;10.15;4.90;;;;;;;40.62;31.75;100313.06;5548152;32;34559;-64
2023/07/17 09:40:19;;;;;;;7.97;5.22;;;;;;;39.13;33.05;100320.22;5547884;32;33989;-64
2023/07/17 09:43:32;;;;;;;7.25;4.65;;;;;;;38.67;34.35;100308.81;5546981;32;34577;-64
2023/07/17 09:46:37;;;;;;;10.98;5.22;;;;;;;39.59;33.48;100314.94;5531842;32;33540;-65
2023/07/17 09:49:41;;;;;;;6.72;5.03;;;;;;;38.28;34.83;100309.72;5545878;32;34116;-65
2023/07/17 09:52:47;;;;;;;7.78;4.75;;;;;;;37.90;35.65;100301.13;5529402;32;33766;-64
2023/07/17 09:55:52;;;;;;;12.98;5.35;;;;;;;38.90;34.01;100305.41;5528317;32;33941;-64
2023/07/17 09:59:05;;;;;;;16.02;4.85;;;;;;;40.39;32.57;100309.44;5546700;32;32467;-63
2023/07/17 10:02:18;;;;;;;15.00;4.90;;;;;;;41.25;31.88;100306.16;5545736;32;34559;-63
2023/07/17 10:05:22;;;;;;;10.43;5.22;;;;;;;41.77;30.55;100310.84;5532411;32;33635;-63
2023/07/17 10:08:28;;;;;;;12.77;5.55;;;;;;;41.37;30.32;100301.13;5547802;32;34448;-66
2023/07/17 10:11:31;;;;;;;9.67;5.27;;;;;;;39.18;33.34;100297.75;5533899;32;34667;-63
2023/07/17 10:14:35;;;;;;;20.08;5.07;;;;;;;41.08;31.05;100299.13;5547829;32;33866;-64
2023/07/17 10:17:40;;;;;;;9.43;5.35;;;;;;;41.65;29.70;100298.75;5547484;32;33835;-64
2023/07/17 10:20:53;;;;;;;10.80;4.65;;;;;;;43.02;28.63;100289.41;5547719;32;34032;-63
2023/07/17 10:24:05;;;;;;;8.63;5.15;;;;;;;43.55;28.01;100288.94;5546396;32;33901;-64
2023/07/17 10:27:08;;;;;;;10.60;4.95;;;;;;;44.34;27.15;100297.22;5546865;32;33699;-63
2023/07/17 10:30:27;;;;;;;12.40;5.47;;;;;;;43.09;27.76;100283.09;5532316;32;33863;-64
2023/07/17 10:33:36;;;;;;;9.27;5.00;;;;;;;42.59;29.20;100282.66;5547371;32;33781;-63
2023/07/17 10:36:42;;;;;;;13.93;5.10;;;;;;;43.64;27.23;100275.41;5536661;32;33309;-64
2023/07/17 10:39:45;;;;;;;11.57;5.22;;;;;;;40.74;30.78;100267.56;5518784;32;34446;-64
2023/07/17 10:42:49;;;;;;;10.73;5.15;;;;;;;42.26;28.77;100257.66;5538910;32;34118;-64
2023/07/17 10:45:55;;;;;;;11.65;5.60;;;;;;;42.41;28.35;100251.03;5542838;32;35318;-64
2023/07/17 10:49:13;;;;;;;9.50;5.28;;;;;;;44.59;26.96;100258.81;5532140;32;34439;-64
2023/07/17 10:52:17;;;;;;;11.55;5.50;;;;;;;43.27;27.54;100247.69;5546426;32;32925;-64
2023/07/17 10:55:20;;;;;;;8.98;5.60;;;;;;;41.36;29.03;100243.03;5531849;32;33606;-64
2023/07/17 10:58:23;;;;;;;10.85;5.62;;;;;;;38.95;33.25;100244.09;5535598;32;34049;-64
2023/07/17 11:01:26;;;;;;;10.13;5.68;;;;;;;38.82;32.90;100234.28;5526634;32;33531;-63
2023/07/17 11:04:33;;;;;;;10.65;5.78;;;;;;;37.36;35.62;100232.28;5541683;32;33763;-63
2023/07/17 11:07:36;;;;;;;9.02;6.20;;;;;;;37.79;35.92;100224.06;5547272;32;34614;-63
2023/07/17 11:10:43;;;;;;;17.05;6.80;;;;;;;40.92;31.51;100226.09;5533680;32;33956;-63
2023/07/17 11:13:48;;;;;;;10.85;5.78;;;;;;;44.19;28.16;100234.03;5533517;32;34599;-63
2023/07/17 11:16:54;;;;;;;10.88;5.90;;;;;;;44.81;26.76;100214.06;5533657;32;33934;-64
2023/07/17 11:20:04;;;;;;;15.00;5.53;;;;;;;44.85;25.78;100217.63;5547072;32;35129;-64
2023/07/17 11:23:11;;;;;;;16.85;5.65;;;;;;;47.17;23.70;100224.94;5533298;32;33830;-64
2023/07/17 11:26:17;;;;;;;10.68;5.18;;;;;;;48.65;22.00;100221.19;5547403;32;33889;-64
2023/07/17 11:29:20;;;;;;;7.20;5.43;;;;;;;44.56;25.50;100219.66;5533697;32;34976;-64
2023/07/17 11:32:28;;;;;;;9.20;5.12;;;;;;;44.50;26.29;100216.47;5546218;32;33609;-64
2023/07/17 11:35:38;;;;;;;9.07;5.20;;;;;;;45.52;24.95;100211.84;5546689;32;34078;-64
2023/07/17 11:38:42;;;;;;;9.45;5.10;;;;;;;45.07;24.91;100199.63;5546565;32;33527;-64
2023/07/17 11:41:53;;;;;;;7.43;5.00;;;;;;;43.44;26.93;100190.28;5546542;32;33766;-63
2023/07/17 11:44:59;;;;;;;10.05;5.30;;;;;;;42.39;26.31;100181.69;5546521;32;34918;-63
2023/07/17 11:48:02;;;;;;;9.48;5.10;;;;;;;43.97;25.17;100174.47;5531250;32;34083;-64
2023/07/17 11:51:06;;;;;;;10.05;5.20;;;;;;;44.67;24.63;100172.09;5542991;32;34650;-65
2023/07/17 11:54:09;;;;;;;11.00;5.15;;;;;;;44.75;24.75;100168.88;5518847;32;33764;-65
2023/07/17 11:57:12;;;;;;;13.43;5.35;;;;;;;45.55;23.86;100165.41;5546562;32;34291;-64
2023/07/17 12:00:15;;;;;;;12.37;5.47;;;;;;;43.48;26.81;100158.41;5546463;32;33765;-64
2023/07/17 12:03:19;;;;;;;10.43;5.55;;;;;;;42.39;27.51;100159.37;5546314;32;33529;-65
2023/07/17 12:06:22;;;;;;;13.85;5.43;;;;;;;44.29;25.10;100156.94;5546233;32;33773;-64
2023/07/17 12:09:25;;;;;;;5.97;5.32;;;;;;;45.59;23.78;100157.75;5546451;32;34926;-65
2023/07/17 12:12:27;;;;;;;12.00;5.15;;;;;;;42.42;27.76;100147.44;5533468;32;33663;-64
2023/07/17 12:15:31;;;;;;;13.93;6.07;;;;;;;40.57;29.55;100143.69;5522524;32;32836;-65
2023/07/17 12:18:34;;;;;;;19.50;6.25;;;;;;;38.49;31.95;100138.44;5548869;32;33974;-64
2023/07/17 12:21:37;;;;;;;13.82;5.93;;;;;;;36.72;34.67;100141.00;5535537;32;33654;-64
2023/07/17 12:24:44;;;;;;;11.68;5.95;;;;;;;35.66;36.30;100147.34;5548703;32;33535;-64
2023/07/17 12:27:47;;;;;;;8.18;5.68;;;;;;;36.01;36.99;100133.97;5535114;32;33803;-63
2023/07/17 12:30:50;;;;;;;9.68;6.10;;;;;;;37.18;35.40;100129.38;5548891;32;33704;-63
2023/07/17 12:33:52;;;;;;;12.25;5.97;;;;;;;38.37;34.04;100132.97;5548669;32;33782;-64
2023/07/17 12:36:55;;;;;;;8.38;5.70;;;;;;;37.63;34.00;100123.56;5549049;32;33897;-64
2023/07/17 12:39:59;;;;;;;13.48;6.15;;;;;;;37.37;35.39;100118.50;5535140;32;32461;-65
2023/07/17 12:43:03;;;;;;;10.98;6.60;;;;;;;36.33;35.63;100110.16;5535176;32;33937;-64
2023/07/17 12:46:06;;;;;;;10.63;6.20;;;;;;;36.38;35.80;100109.13;5536832;32;34304;-64
2023/07/17 12:49:10;;;;;;;11.48;6.20;;;;;;;36.05;37.17;100111.97;5547567;32;33908;-63
2023/07/17 12:52:13;;;;;;;14.35;5.87;;;;;;;36.64;36.52;100104.06;5535081;32;33663;-64
2023/07/17 12:55:16;;;;;;;10.32;5.90;;;;;;;40.18;32.33;100103.38;5534919;32;33541;-64
2023/07/17 12:58:20;;;;;;;6.87;4.68;;;;;;;43.54;27.84;100103.75;5522110;32;33790;-65
2023/07/17 13:01:23;;;;;;;7.65;4.50;;;;;;;45.11;24.50;100098.78;5534926;32;33392;-65
2023/07/17 13:04:26;;;;;;;9.18;4.65;;;;;;;44.34;24.32;100106.19;5535055;32;34109;-65
2023/07/17 13:07:29;;;;;;;11.52;5.03;;;;;;;41.09;27.77;100108.69;5548814;32;34718;-64
2023/07/17 13:10:32;;;;;;;11.88;4.43;;;;;;;39.44;29.94;100098.09;5535273;32;33423;-64
2023/07/17 13:13:35;;;;;;;7.10;3.92;;;;;;;37.66;32.36;100088.84;5534759;32;33936;-64
2023/07/17 13:16:38;;;;;;;11.23;4.15;;;;;;;36.60;31.96;100089.28;5534969;32;33996;-65
2023/07/17 13:19:41;;;;;;;6.12;4.15;;;;;;;35.62;34.31;100074.63;5535027;32;33628;-64
2023/07/17 13:22:50;;;;;;;8.10;4.00;;;;;;;35.34;35.11;100079.16;5547934;32;34857;-66
2023/07/17 13:25:53;;;;;;;7.47;4.30;;;;;;;36.02;34.47;100079.53;5547774;32;34626;-64
2023/07/17 13:28:56;;;;;;;6.60;4.50;;;;;;;36.59;33.71;100080.22;5548118;32;32738;-65
2023/07/17 13:31:59;;;;;;;7.93;4.40;;;;;;;35.76;35.60;100088.13;5547724;32;33803;-65
2023/07/17 13:35:03;;;;;;;8.70;4.55;;;;;;;35.34;37.09;100083.88;5533907;32;35004;-65
2023/07/17 13:38:06;;;;;;;12.27;4.60;;;;;;;35.28;37.78;100083.28;5532823;32;33812;-64
2023/07/17 13:41:19;;;;;;;8.00;4.70;;;;;;;34.80;38.96;100089.34;5546370;32;34335;-64
2023/07/17 13:44:22;;;;;;;8.40;4.78;;;;;;;34.50;40.11;100099.56;5530313;32;34095;-64
2023/07/17 13:47:26;;;;;;;9.50;5.45;;;;;;;34.91;39.89;100106.31;5546347;32;34076;-64
2023/07/17 13:50:29;;;;;;;9.25;5.32;;;;;;;35.11;40.41;100117.28;5547669;32;32338;-64
2023/07/17 13:53:32;;;;;;;12.45;5.25;;;;;;;35.37;39.77;100114.34;5533575;32;33793;-64
2023/07/17 13:56:35;;;;;;;9.18;4.70;;;;;;;35.37;40.08;100116.28;5547655;32;34553;-64
2023/07/17 13:59:42;;;;;;;12.07;5.60;;;;;;;34.76;41.52;100119.50;5531856;32;33574;-64